This is the latest recevied weather packets stored in our database for station/object W1REE. If no packets are shown the sender has not sent any weather packets the latest 10 day(s).
| Time | Temp. | Humidity | Pressure | Rain* | Wind** | Luminosity | Snow |
|---|---|---|---|---|---|---|---|
| 1777831386 | 20° C | 14% | 1019.3 hPa | 0 mm | - | 738 W/m² | - |
| 1777829267 | 20.56° C | 16% | 1019.9 hPa | 0 mm | - | 965 W/m² | - |
| 1777826235 | 18.33° C | 19% | 1020.2 hPa | 0 mm | - | 394 W/m² | - |
| 1777825933 | 18.33° C | 20% | 1020.4 hPa | 0 mm | - | 364 W/m² | - |
| 1777825328 | 18.89° C | 22% | 1020.5 hPa | 0 mm | - | 346 W/m² | - |
| 1777825025 | 18.33° C | 21% | 1020.6 hPa | 0 mm | - | 355 W/m² | - |
| 1777824720 | 18.33° C | 20% | 1020.4 hPa | 0 mm | - | 382 W/m² | - |
| 1777824418 | 18.33° C | 20% | 1020.6 hPa | 0 mm | - | 447 W/m² | - |
| 1777824113 | 17.78° C | 24% | 1020.7 hPa | 0 mm | - | 382 W/m² | - |
| 1777822600 | 17.78° C | 22% | 1020.6 hPa | 0 mm | - | 300 W/m² | - |
| 1777821994 | 17.22° C | 24% | 1020.8 hPa | 0 mm | - | 268 W/m² | - |
| 1777821390 | 16.67° C | 24% | 1021 hPa | 0 mm | - | 258 W/m² | - |
| 1777821086 | 16.67° C | 25% | 1020.8 hPa | 0 mm | - | 251 W/m² | - |
| 1777819874 | 16.67° C | 27% | 1021 hPa | 0 mm | - | 277 W/m² | - |
| 1777818661 | 16.67° C | 27% | 1021.1 hPa | 0 mm | - | 270 W/m² | - |
| 1777817752 | 16.11° C | 26% | 1020.8 hPa | 0 mm | - | 282 W/m² | - |
| 1777817450 | 16.11° C | 29% | 1020.8 hPa | 0 mm | - | 242 W/m² | - |
| 1777817145 | 15° C | 31% | 1020.8 hPa | 0 mm | - | 283 W/m² | - |
| 1777809876 | 7.22° C | 46% | 1020.1 hPa | 0 mm | - | 6 W/m² | - |
| 1777809574 | 7.78° C | 43% | 1020.1 hPa | 0 mm | - | 4 W/m² | - |
| 1777808969 | 7.78° C | 42% | 1020 hPa | 0 mm | - | 1 W/m² | - |
| 1777805944 | 6.11° C | 47% | 1020.2 hPa | 0 mm | - | 0 W/m² | - |
| 1777804431 | 6.67° C | 47% | 1020.2 hPa | 0 mm | - | 0 W/m² | - |
| 1777804128 | 6.67° C | 45% | 1020.4 hPa | 0 mm | - | 0 W/m² | - |
| 1777803520 | 5° C | 50% | 1020.1 hPa | 0 mm | - | 0 W/m² | - |
* Rain latest hour (hover to see other rain measurements)
** Current wind speed in m/s (hover to see current wind gust speed)